Lemoore Naval Air Station (Reeves Field) Airport
KNLC : now visible

Airfield :











YOU CAN JOIN US ON...

 
LOGIN :

Register | Disclaimer

   EN    FR    IT 

 









Legend :    VFR   Marginal VFR   IFR   Intensive IFR   Very Intensive IFR
Visi :
Ceiling :
>= 8 km
>= 3000ft
5 to 8 km
1000 to 3000 ft
1500m to 5 km
500 to 1000 ft
800 to 1500m
200 to 500 ft
< 800m
< 200 ft
Symbols :   Thunderstorms  Fog  Heavy snow  Heavy precipitations  Wind > 20 kt






- Airport Elevation : 232 ft


KNLC - Lemoore Naval Air Station (Reeves Field)

CURRENT METAR :
  • 090756Z AUTO 33008KT 10SM CLR 24/12 A2990 RMK AO2 SLP123 T02390117 403610194

EXPIRED METARs :
  • 090656Z 32010KT 10SM CLR 26/12 A2989 RMK AO2 SLP121 RH/41 T02610117
  • 090556Z 32010KT 10SM CLR 27/13 A2989 RMK AO2 SLP121 RH/40 T02720133 10361 20272 51014

TAF TAF KNLC
Valid from the 09 at 07:00 until the 10 at 07:00 UTC


0907/1007 32008KT 9999 SKC QNH2983INS
FM091200 VRB06KT 9999 FEW100 QNH2981INS
FM100100 33007KT 9999 SKC QNH2983INS T19/0913Z T37/0923Z FS30190
KZOA FIR / North America



MET'MAP, your aeronautical weather chart ! - Copyright ORBIFLY December 2007 - Disclaimer

ORBIFLY MET'MAP TEAM :

Programming & Development : Alexandra Zaïnal
Original concept : Baudouin d'Aumeries
Technical & hardware support : Manuel Goepfert
Assistance : Marc-Olivier Méhu




SOURCES & CREDITS :

   NOAA       Earth
Advisory